createdAt,value
2023-03-05T00:02:18.832Z,58.27
2023-03-05T00:04:46.566Z,60.90
2023-03-05T00:07:15.789Z,61.93
2023-03-05T00:09:43.309Z,49.50
2023-03-05T00:12:11.888Z,57.63
2023-03-05T00:14:40.301Z,60.10
2023-03-05T00:17:08.713Z,52.90
2023-03-05T00:19:37.857Z,58.90
2023-03-05T00:22:06.002Z,51.80
2023-03-05T00:24:37.966Z,62.77
2023-03-05T00:27:05.590Z,55.53
2023-03-05T00:29:36.502Z,61.13
2023-03-05T00:32:05.328Z,64.53
2023-03-05T00:34:32.919Z,56.00
2023-03-05T00:37:00.436Z,76.17
2023-03-05T00:39:28.056Z,55.80
2023-03-05T00:41:57.391Z,53.50
2023-03-05T00:44:25.278Z,61.97
2023-03-05T00:46:53.525Z,55.57
2023-03-05T00:49:22.300Z,58.30
2023-03-05T00:51:51.240Z,55.07
2023-03-05T00:54:18.864Z,66.90
2023-03-05T00:56:47.456Z,61.40
2023-03-05T00:59:16.946Z,51.17
2023-03-05T01:01:44.910Z,54.90
2023-03-05T01:04:12.733Z,54.77
2023-03-05T01:06:43.007Z,53.63
2023-03-05T01:09:11.242Z,57.23
2023-03-05T01:11:39.158Z,54.70
2023-03-05T01:14:07.975Z,59.83
2023-03-05T01:16:39.922Z,51.80
2023-03-05T01:19:07.860Z,61.63
2023-03-05T01:21:36.320Z,54.97
2023-03-05T01:24:04.028Z,54.03
2023-03-05T01:26:31.750Z,59.50
2023-03-05T01:28:59.957Z,57.80
2023-03-05T01:31:28.533Z,53.60
2023-03-05T01:33:57.797Z,56.20
2023-03-05T01:36:27.628Z,53.83
2023-03-05T01:38:55.290Z,52.90
2023-03-05T01:41:24.706Z,58.90
2023-03-05T01:43:53.292Z,53.50
2023-03-05T01:46:29.111Z,58.07
2023-03-05T01:49:03.051Z,58.80
2023-03-05T01:51:32.864Z,53.80
2023-03-05T01:54:02.205Z,61.93
2023-03-05T01:56:30.994Z,55.50
2023-03-05T01:59:05.469Z,54.87
2023-03-05T02:01:35.317Z,60.33
2023-03-05T02:04:04.598Z,60.23
2023-03-05T02:06:33.268Z,60.77
2023-03-05T02:09:01.953Z,57.60
2023-03-05T02:11:30.548Z,60.27
2023-03-05T02:13:59.297Z,60.67
2023-03-05T02:16:28.153Z,66.00
2023-03-05T02:18:55.956Z,65.70
2023-03-05T02:21:37.487Z,56.67
2023-03-05T02:24:07.791Z,55.83
2023-03-05T02:26:35.802Z,50.60
2023-03-05T02:29:04.188Z,67.77
2023-03-05T02:31:32.779Z,55.23
2023-03-05T02:34:00.658Z,53.67
2023-03-05T02:36:28.311Z,58.63
2023-03-05T02:38:59.199Z,68.37
2023-03-05T02:41:27.098Z,64.30
2023-03-05T02:43:54.736Z,60.97
2023-03-05T02:46:22.276Z,57.53
2023-03-05T02:48:51.312Z,60.87
2023-03-05T02:51:19.011Z,59.67
2023-03-05T02:53:46.563Z,66.57
2023-03-05T02:56:15.606Z,67.00
2023-03-05T02:58:43.898Z,49.00
2023-03-05T03:01:14.675Z,65.83
2023-03-05T03:03:42.382Z,63.07
2023-03-05T03:06:10.543Z,61.00
2023-03-05T03:08:39.263Z,62.97
2023-03-05T03:11:08.228Z,66.97
2023-03-05T03:13:38.642Z,55.40
2023-03-05T03:16:07.297Z,62.43
2023-03-05T03:18:36.900Z,63.13
2023-03-05T03:21:04.640Z,61.13
2023-03-05T03:23:33.231Z,51.53
2023-03-05T03:26:01.072Z,58.20
2023-03-05T03:28:28.729Z,63.10
2023-03-05T03:30:58.003Z,63.17
2023-03-05T03:33:26.313Z,57.90
2023-03-05T03:35:54.064Z,63.57
2023-03-05T03:38:22.201Z,51.00
2023-03-05T03:40:49.871Z,64.63
2023-03-05T03:43:18.943Z,66.77
2023-03-05T03:45:46.597Z,59.87
2023-03-05T03:48:15.615Z,62.43
2023-03-05T03:50:44.060Z,66.80
2023-03-05T03:53:14.157Z,57.60
2023-03-05T03:55:43.971Z,65.73
2023-03-05T03:58:11.970Z,56.03
2023-03-05T04:00:40.462Z,56.87
2023-03-05T04:03:08.803Z,60.90
2023-03-05T04:05:39.439Z,56.03
2023-03-05T04:08:12.452Z,65.37
2023-03-05T04:10:40.451Z,60.30
2023-03-05T04:13:08.153Z,59.30
2023-03-05T04:15:35.832Z,67.77
2023-03-05T04:18:03.648Z,63.17
2023-03-05T04:20:31.473Z,68.93
2023-03-05T04:23:00.422Z,62.13
2023-03-05T04:25:28.093Z,63.83
2023-03-05T04:27:55.641Z,68.13
2023-03-05T04:30:23.337Z,65.23
2023-03-05T04:32:50.886Z,66.87
2023-03-05T04:35:19.159Z,64.53
2023-03-05T04:37:47.383Z,53.53
2023-03-05T04:40:17.920Z,65.67
2023-03-05T04:42:45.926Z,59.13
2023-03-05T04:45:13.959Z,64.30
2023-03-05T04:47:42.009Z,59.50
2023-03-05T04:50:10.236Z,61.50
2023-03-05T04:52:40.632Z,53.97
2023-03-05T04:55:09.843Z,62.37
2023-03-05T04:57:42.130Z,55.93
2023-03-05T05:00:14.877Z,65.83
2023-03-05T05:02:42.916Z,68.63
2023-03-05T05:05:11.783Z,63.97
2023-03-05T05:07:39.326Z,62.50
2023-03-05T05:10:08.119Z,60.37
2023-03-05T05:12:35.859Z,63.57
2023-03-05T05:15:05.968Z,63.10
2023-03-05T05:17:34.033Z,63.43
2023-03-05T05:20:01.871Z,56.10
2023-03-05T05:22:32.517Z,66.00
2023-03-05T05:25:00.787Z,65.07
2023-03-05T05:27:29.681Z,53.30
2023-03-05T05:29:57.699Z,67.57
2023-03-05T05:32:27.551Z,68.13
2023-03-05T05:34:57.179Z,68.03
2023-03-05T05:37:26.091Z,63.73
2023-03-05T05:39:53.784Z,63.80
2023-03-05T05:42:22.579Z,58.60
2023-03-05T05:44:50.490Z,59.00
2023-03-05T05:47:18.467Z,63.30
2023-03-05T05:49:47.583Z,58.57
2023-03-05T05:52:15.492Z,65.17
2023-03-05T05:54:44.716Z,60.80
2023-03-05T05:57:12.219Z,56.03
2023-03-05T05:59:40.350Z,67.27
2023-03-05T06:02:08.856Z,58.00
2023-03-05T06:04:37.023Z,60.30
2023-03-05T06:07:06.024Z,60.00
2023-03-05T06:09:36.598Z,67.90
2023-03-05T06:12:04.575Z,58.77
2023-03-05T06:14:32.291Z,70.67
2023-03-05T06:17:00.938Z,72.77
2023-03-05T06:19:29.047Z,62.17
2023-03-05T06:21:57.541Z,54.70
2023-03-05T06:24:26.683Z,63.23
2023-03-05T06:26:54.627Z,70.30
2023-03-05T06:29:22.216Z,62.03
2023-03-05T06:31:50.416Z,72.27
2023-03-05T06:34:17.955Z,93.40
2023-03-05T06:36:45.704Z,70.93
2023-03-05T06:39:13.364Z,69.67
2023-03-05T06:41:42.275Z,78.43
2023-03-05T06:44:09.789Z,73.03
2023-03-05T06:46:39.772Z,72.57
2023-03-05T06:49:09.522Z,67.40
2023-03-05T06:51:38.079Z,66.77
2023-03-05T06:54:07.218Z,69.97
2023-03-05T06:56:37.342Z,63.20
2023-03-05T06:59:07.064Z,76.07
2023-03-05T07:01:35.602Z,71.93
2023-03-05T07:04:09.394Z,79.57
2023-03-05T07:06:38.235Z,76.37
2023-03-05T07:09:08.339Z,61.63
2023-03-05T07:11:35.931Z,67.57
2023-03-05T07:14:04.002Z,60.10
2023-03-05T07:16:34.279Z,60.00
2023-03-05T07:19:03.787Z,66.40
2023-03-05T07:21:32.743Z,64.37
2023-03-05T07:24:02.709Z,61.40
2023-03-05T07:26:31.155Z,69.20
2023-03-05T07:28:59.524Z,66.27
2023-03-05T07:31:30.989Z,61.47
2023-03-05T07:34:00.929Z,56.10
2023-03-05T07:36:29.196Z,65.20
2023-03-05T07:38:56.774Z,73.70
2023-03-05T07:41:24.486Z,59.17
2023-03-05T07:43:53.809Z,59.70
2023-03-05T07:46:22.655Z,65.73
2023-03-05T07:48:50.385Z,71.27
2023-03-05T07:51:20.662Z,67.60
2023-03-05T07:53:48.748Z,74.97
2023-03-05T07:56:21.853Z,59.07
2023-03-05T07:58:49.437Z,71.80
2023-03-05T08:01:17.244Z,62.63
2023-03-05T08:03:45.644Z,63.03
2023-03-05T08:06:13.836Z,64.57
2023-03-05T08:08:42.959Z,63.70
2023-03-05T08:11:11.389Z,56.90
2023-03-05T08:13:39.448Z,73.20
2023-03-05T08:16:07.410Z,63.47
2023-03-05T08:18:35.126Z,60.40
2023-03-05T08:21:02.749Z,59.13
2023-03-05T08:23:30.375Z,57.10
2023-03-05T08:25:59.394Z,59.20
2023-03-05T08:28:26.968Z,65.57
2023-03-05T08:30:54.540Z,347.97
2023-03-05T08:33:22.159Z,134.30
2023-03-05T08:35:50.031Z,123.63
2023-03-05T08:38:20.026Z,50.47
2023-03-05T08:40:49.138Z,41.87
2023-03-05T08:43:19.289Z,54.73
2023-03-05T08:45:47.522Z,46.95
2023-03-05T08:48:15.248Z,43.07
2023-03-05T08:50:42.916Z,50.70
2023-03-05T08:53:10.465Z,49.43
2023-03-05T08:55:38.504Z,42.47
2023-03-05T08:58:06.046Z,38.57
2023-03-05T09:00:34.952Z,50.87
2023-03-05T09:03:02.530Z,50.67
2023-03-05T09:05:30.089Z,50.60
2023-03-05T09:08:00.490Z,45.33
2023-03-05T09:10:28.057Z,49.20
2023-03-05T09:12:55.551Z,44.87
2023-03-05T09:15:23.072Z,40.80
2023-03-05T09:17:51.993Z,47.10
2023-03-05T09:20:19.669Z,33.00
2023-03-05T09:22:47.326Z,38.50
2023-03-05T09:25:16.495Z,40.20
2023-03-05T09:27:45.349Z,42.23
2023-03-05T09:30:14.515Z,46.88
2023-03-05T09:32:42.175Z,51.40
2023-03-05T09:35:11.826Z,45.70
2023-03-05T09:37:39.363Z,38.47
2023-03-05T09:40:07.608Z,37.25
2023-03-05T09:42:45.841Z,58.73
2023-03-05T09:45:20.334Z,46.58
2023-03-05T09:47:53.254Z,41.63
2023-03-05T09:50:32.529Z,44.63
2023-03-05T09:53:02.367Z,34.80
2023-03-05T09:55:33.200Z,43.88
2023-03-05T09:58:04.622Z,35.07
2023-03-05T10:00:35.303Z,41.50
2023-03-05T10:03:06.166Z,41.92
2023-03-05T10:05:46.961Z,38.05
2023-03-05T10:08:15.676Z,36.95
2023-03-05T10:10:45.187Z,31.85
2023-03-05T10:13:15.132Z,38.72
2023-03-05T10:15:50.390Z,35.95
2023-03-05T10:18:22.896Z,28.77
2023-03-05T10:20:57.790Z,32.88
2023-03-05T10:23:32.717Z,32.13
2023-03-05T10:26:07.112Z,31.85
2023-03-05T10:28:43.786Z,31.33
2023-03-05T10:31:29.475Z,39.33
2023-03-05T10:34:03.184Z,30.43
2023-03-05T10:36:38.880Z,33.13
2023-03-05T10:39:13.667Z,37.13
2023-03-05T10:41:44.250Z,36.67
2023-03-05T10:44:16.581Z,32.13
2023-03-05T10:46:45.795Z,36.35
2023-03-05T10:49:16.741Z,31.23
2023-03-05T10:51:49.563Z,29.90
2023-03-05T10:54:20.133Z,28.75
2023-03-05T10:56:47.691Z,30.20
2023-03-05T10:59:15.244Z,38.67
2023-03-05T11:01:43.039Z,35.03
2023-03-05T11:04:26.504Z,27.20
2023-03-05T11:06:55.513Z,34.83
2023-03-05T11:09:26.534Z,35.92
2023-03-05T11:12:05.827Z,37.35
2023-03-05T11:14:34.149Z,31.50
2023-03-05T11:17:02.148Z,30.67
2023-03-05T11:19:32.874Z,28.08
2023-03-05T11:22:07.789Z,32.75
2023-03-05T11:24:35.362Z,33.17
2023-03-05T11:27:03.066Z,35.38
2023-03-05T11:29:31.842Z,36.50
2023-03-05T11:32:15.585Z,38.05
2023-03-05T11:34:43.248Z,37.38
2023-03-05T11:37:21.092Z,36.63
2023-03-05T11:39:48.640Z,37.40
2023-03-05T11:42:19.333Z,36.07
2023-03-05T11:44:47.941Z,30.08
2023-03-05T11:47:19.256Z,32.03
2023-03-05T11:49:47.566Z,36.38
2023-03-05T11:52:19.789Z,36.20
2023-03-05T11:54:54.426Z,33.17
2023-03-05T11:57:24.095Z,31.73
2023-03-05T11:59:54.393Z,32.42
2023-03-05T12:02:23.777Z,34.47
2023-03-05T12:04:51.599Z,33.03
2023-03-05T12:07:23.110Z,31.40
2023-03-05T12:09:52.294Z,32.88
2023-03-05T12:12:27.179Z,33.57
2023-03-05T12:14:58.289Z,33.72
2023-03-05T12:17:28.296Z,33.72
2023-03-05T12:19:59.442Z,31.08
2023-03-05T12:22:34.111Z,37.83
2023-03-05T12:25:16.517Z,35.42
2023-03-05T12:27:44.902Z,35.45
2023-03-05T12:30:31.038Z,33.38
2023-03-05T12:32:58.855Z,35.90
2023-03-05T12:35:28.740Z,34.53
2023-03-05T12:38:24.384Z,34.05
2023-03-05T12:40:53.176Z,39.42
2023-03-05T12:43:31.688Z,36.60
2023-03-05T12:46:18.159Z,38.22
2023-03-05T12:48:46.011Z,41.97
2023-03-05T12:51:14.845Z,34.08
2023-03-05T12:53:43.794Z,29.70
2023-03-05T12:56:17.055Z,35.65
2023-03-05T12:58:45.537Z,36.58
2023-03-05T13:01:30.360Z,31.67
2023-03-05T13:03:59.605Z,43.00
2023-03-05T13:06:30.060Z,35.77
2023-03-05T13:08:59.890Z,32.03
2023-03-05T13:11:28.974Z,35.28
2023-03-05T13:13:57.413Z,37.80
2023-03-05T13:16:26.332Z,36.55
2023-03-05T13:18:54.627Z,32.83
2023-03-05T13:21:26.620Z,38.25
2023-03-05T13:23:58.745Z,40.55
2023-03-05T13:26:28.286Z,37.47
2023-03-05T13:29:07.426Z,37.42
2023-03-05T13:31:36.175Z,34.33
2023-03-05T13:34:10.249Z,33.80
2023-03-05T13:36:41.026Z,36.22
2023-03-05T13:39:08.942Z,34.42
2023-03-05T13:41:37.890Z,32.65
2023-03-05T13:44:05.535Z,36.08
2023-03-05T13:46:33.962Z,35.58
2023-03-05T13:49:16.975Z,32.80
2023-03-05T13:51:45.248Z,34.15
2023-03-05T13:54:14.687Z,34.22
2023-03-05T13:56:51.102Z,31.38
2023-03-05T13:59:20.133Z,30.23
2023-03-05T14:01:48.253Z,30.45
2023-03-05T14:04:20.763Z,32.38
2023-03-05T14:06:49.963Z,38.20
2023-03-05T14:09:22.288Z,34.47
2023-03-05T14:11:55.534Z,39.13
2023-03-05T14:14:24.263Z,27.65
2023-03-05T14:16:52.146Z,29.17
2023-03-05T14:19:32.820Z,33.25
2023-03-05T14:22:00.429Z,39.42
2023-03-05T14:24:31.215Z,29.67
2023-03-05T14:27:03.286Z,28.77
2023-03-05T14:29:30.914Z,30.05
2023-03-05T14:32:00.309Z,30.10
2023-03-05T14:34:30.276Z,26.73
2023-03-05T14:36:59.261Z,24.75
2023-03-05T14:39:37.891Z,28.67
2023-03-05T14:42:23.901Z,23.60
2023-03-05T14:44:52.809Z,21.70
2023-03-05T14:47:20.870Z,25.63
2023-03-05T14:49:48.517Z,30.95
2023-03-05T14:52:17.683Z,69.13
2023-03-05T14:54:45.526Z,32.88
2023-03-05T14:57:17.846Z,24.05
2023-03-05T14:59:45.824Z,25.27
2023-03-05T15:02:18.894Z,27.20
2023-03-05T15:04:48.217Z,23.80
2023-03-05T15:07:18.060Z,23.08
2023-03-05T15:09:46.067Z,24.45
2023-03-05T15:12:14.382Z,26.23
2023-03-05T15:14:43.533Z,24.80
2023-03-05T15:17:15.089Z,27.58
2023-03-05T15:19:47.121Z,25.15
2023-03-05T15:22:15.300Z,33.97
2023-03-05T15:24:43.335Z,24.70
2023-03-05T15:27:11.540Z,32.85
2023-03-05T15:29:40.285Z,28.30
2023-03-05T15:32:08.496Z,22.88
2023-03-05T15:34:36.832Z,29.38
2023-03-05T15:37:06.230Z,30.33
2023-03-05T15:39:37.603Z,26.83
2023-03-05T15:42:06.597Z,29.00
2023-03-05T15:44:34.887Z,32.10
2023-03-05T15:47:02.854Z,35.47
2023-03-05T15:49:31.570Z,34.90
2023-03-05T15:51:59.133Z,25.63
2023-03-05T15:54:31.052Z,29.23
2023-03-05T15:56:58.689Z,29.00
2023-03-05T15:59:26.688Z,27.37
2023-03-05T16:01:54.774Z,26.27
2023-03-05T16:04:22.579Z,30.55
2023-03-05T16:06:52.036Z,27.57
2023-03-05T16:09:20.342Z,24.08
2023-03-05T16:11:51.571Z,27.30
2023-03-05T16:14:22.663Z,24.23
2023-03-05T16:16:50.867Z,27.55
2023-03-05T16:19:19.819Z,24.90
2023-03-05T16:21:47.647Z,21.98
2023-03-05T16:24:15.661Z,24.58
2023-03-05T16:26:46.299Z,27.93
2023-03-05T16:29:15.459Z,27.20
2023-03-05T16:31:45.532Z,24.83
2023-03-05T16:34:14.266Z,25.10
2023-03-05T16:36:42.415Z,28.95
2023-03-05T16:39:10.409Z,37.08
2023-03-05T16:41:38.151Z,38.63
2023-03-05T16:44:06.062Z,32.58
2023-03-05T16:46:35.362Z,37.25
2023-03-05T16:49:03.152Z,40.00
2023-03-05T16:51:30.866Z,28.77
2023-03-05T16:53:58.634Z,33.47
2023-03-05T16:56:26.306Z,28.50
2023-03-05T16:58:55.478Z,32.33
2023-03-05T17:01:23.799Z,36.72
2023-03-05T17:03:53.682Z,35.87
2023-03-05T17:06:22.463Z,29.10
2023-03-05T17:08:50.966Z,28.83
2023-03-05T17:11:19.199Z,31.43
2023-03-05T17:13:49.022Z,32.13
2023-03-05T17:16:17.978Z,30.47
2023-03-05T17:18:45.735Z,32.10
2023-03-05T17:21:14.804Z,32.37
2023-03-05T17:23:42.524Z,30.53
2023-03-05T17:26:11.650Z,26.87
2023-03-05T17:28:39.693Z,30.50
2023-03-05T17:31:07.202Z,28.20
2023-03-05T17:33:35.605Z,25.80
2023-03-05T17:36:03.568Z,27.63
2023-03-05T17:38:32.480Z,24.53
2023-03-05T17:41:00.131Z,23.00
2023-03-05T17:43:27.971Z,29.23
2023-03-05T17:45:59.596Z,34.73
2023-03-05T17:48:27.539Z,33.63
2023-03-05T17:50:55.136Z,35.70
2023-03-05T17:53:23.454Z,41.87
2023-03-05T17:55:52.694Z,39.73
2023-03-05T17:58:20.675Z,34.57
2023-03-05T18:00:48.330Z,37.93
2023-03-05T18:03:15.900Z,40.20
2023-03-05T18:05:43.487Z,41.97
2023-03-05T18:08:11.012Z,26.90
2023-03-05T18:10:38.552Z,29.17
2023-03-05T18:13:07.651Z,29.47
2023-03-05T18:15:37.208Z,26.27
2023-03-05T18:18:04.899Z,27.00
2023-03-05T18:20:33.565Z,29.27
2023-03-05T18:23:02.217Z,31.50
2023-03-05T18:25:31.687Z,30.30
2023-03-05T18:27:59.762Z,38.23
2023-03-05T18:30:29.255Z,29.53
2023-03-05T18:32:57.056Z,29.43
2023-03-05T18:35:25.005Z,48.00
2023-03-05T18:37:52.647Z,35.97
2023-03-05T18:40:21.854Z,31.48
2023-03-05T18:42:49.713Z,26.00
2023-03-05T18:45:18.097Z,29.10
2023-03-05T18:47:47.955Z,36.83
2023-03-05T18:50:16.918Z,38.37
2023-03-05T18:52:44.510Z,37.17
2023-03-05T18:55:15.557Z,35.40
2023-03-05T18:57:43.055Z,42.90
2023-03-05T19:00:12.044Z,35.27
2023-03-05T19:02:39.566Z,37.00
2023-03-05T19:05:08.974Z,36.43
2023-03-05T19:07:38.049Z,37.60
2023-03-05T19:10:08.531Z,37.93
2023-03-05T19:12:41.883Z,37.47
2023-03-05T19:15:09.919Z,34.40
2023-03-05T19:17:37.666Z,35.83
2023-03-05T19:20:07.816Z,34.10
2023-03-05T19:22:36.765Z,36.70
2023-03-05T19:25:04.331Z,32.93
2023-03-05T19:27:31.850Z,35.60
2023-03-05T19:30:00.155Z,32.10
2023-03-05T19:32:27.734Z,33.07
2023-03-05T19:34:56.317Z,32.30
2023-03-05T19:37:24.095Z,40.60
2023-03-05T19:39:53.197Z,35.40
2023-03-05T19:42:20.785Z,32.67
2023-03-05T19:44:48.529Z,34.00
2023-03-05T19:47:16.057Z,30.00
2023-03-05T19:49:43.736Z,30.50
2023-03-05T19:52:11.326Z,37.17
2023-03-05T19:54:38.882Z,34.60
2023-03-05T19:57:07.831Z,37.80
2023-03-05T19:59:35.528Z,40.37
2023-03-05T20:02:03.206Z,40.70
2023-03-05T20:04:30.751Z,36.40
2023-03-05T20:06:58.914Z,35.83
2023-03-05T20:09:26.556Z,35.63
2023-03-05T20:11:54.056Z,38.53
2023-03-05T20:14:23.140Z,37.27
2023-03-05T20:16:50.681Z,32.50
2023-03-05T20:19:20.235Z,33.27
2023-03-05T20:21:47.770Z,32.77
2023-03-05T20:24:16.115Z,41.07
2023-03-05T20:26:44.464Z,31.37
2023-03-05T20:29:13.461Z,33.97
2023-03-05T20:31:43.757Z,29.20
2023-03-05T20:34:12.772Z,30.20
2023-03-05T20:36:40.584Z,27.20
2023-03-05T20:39:08.395Z,28.70
2023-03-05T20:41:37.680Z,26.73
2023-03-05T20:44:05.572Z,35.10
2023-03-05T20:46:34.144Z,34.40
2023-03-05T20:49:03.504Z,35.10
2023-03-05T20:51:31.796Z,37.23
2023-03-05T20:54:02.481Z,33.53
2023-03-05T20:56:32.306Z,32.03
2023-03-05T20:59:01.122Z,33.90
2023-03-05T21:01:28.753Z,36.50
2023-03-05T21:03:57.205Z,31.57
2023-03-05T21:06:26.513Z,39.67
2023-03-05T21:08:54.191Z,33.57
2023-03-05T21:11:22.042Z,31.20
2023-03-05T21:13:49.593Z,34.60
2023-03-05T21:16:18.804Z,26.80
2023-03-05T21:18:46.341Z,33.53
2023-03-05T21:21:13.887Z,31.80
2023-03-05T21:23:42.959Z,33.70
2023-03-05T21:26:10.659Z,37.93
2023-03-05T21:28:40.010Z,44.47
2023-03-05T21:31:08.548Z,47.93
2023-03-05T21:33:36.134Z,43.72
2023-03-05T21:36:03.837Z,44.20
2023-03-05T21:38:33.940Z,35.50
2023-03-05T21:41:03.455Z,35.80
2023-03-05T21:43:31.845Z,36.93
2023-03-05T21:46:01.060Z,62.60
2023-03-05T21:48:28.845Z,41.97
2023-03-05T21:50:57.239Z,40.30
2023-03-05T21:53:24.963Z,55.43
2023-03-05T21:56:04.176Z,60.33
2023-03-05T21:58:34.227Z,57.60
2023-03-05T22:01:01.871Z,37.30
2023-03-05T22:03:30.056Z,46.80
2023-03-05T22:05:57.746Z,43.83
2023-03-05T22:08:25.493Z,39.23
2023-03-05T22:10:54.356Z,36.27
2023-03-05T22:13:22.468Z,38.03
2023-03-05T22:15:52.523Z,44.10
2023-03-05T22:18:21.377Z,43.07
2023-03-05T22:20:49.440Z,44.33
2023-03-05T22:23:17.492Z,38.30
2023-03-05T22:25:45.246Z,43.63
2023-03-05T22:28:13.317Z,34.63
2023-03-05T22:30:43.984Z,45.80
2023-03-05T22:33:13.152Z,43.70
2023-03-05T22:35:41.231Z,42.03
2023-03-05T22:38:08.914Z,42.70
2023-03-05T22:40:37.624Z,42.17
2023-03-05T22:43:05.122Z,41.27
2023-03-05T22:45:32.575Z,39.43
2023-03-05T22:48:00.147Z,41.13
2023-03-05T22:50:28.995Z,40.37
2023-03-05T22:52:56.599Z,39.77
2023-03-05T22:55:24.190Z,35.67
2023-03-05T22:57:51.694Z,41.50
2023-03-05T23:00:21.716Z,40.17
2023-03-05T23:02:49.264Z,38.57
2023-03-05T23:05:16.970Z,34.67
2023-03-05T23:07:46.009Z,37.90
2023-03-05T23:10:15.398Z,40.47
2023-03-05T23:12:46.260Z,40.33
2023-03-05T23:15:15.028Z,42.63
2023-03-05T23:17:42.803Z,31.60
2023-03-05T23:20:11.655Z,35.90
2023-03-05T23:22:40.417Z,37.20
2023-03-05T23:25:10.090Z,34.67
2023-03-05T23:27:37.770Z,39.73
2023-03-05T23:30:16.350Z,34.90
2023-03-05T23:32:47.894Z,41.63
2023-03-05T23:35:16.188Z,42.03
2023-03-05T23:37:43.730Z,38.17
2023-03-05T23:40:15.406Z,37.57
2023-03-05T23:42:43.258Z,38.27
2023-03-05T23:45:11.380Z,37.17
2023-03-05T23:47:39.091Z,40.03
2023-03-05T23:50:07.658Z,37.20
2023-03-05T23:52:35.152Z,38.50
2023-03-05T23:55:02.704Z,43.20
2023-03-05T23:57:31.563Z,36.10
2023-03-05T23:59:59.111Z,38.87
